sensor_id;sensor_type;location;lat;lon;timestamp;pressure;altitude;pressure_sealevel;temperature;humidity
22389;BME280;11362;48.102;11.620;2023-04-25T00:00:22;94599.16;;;21.28;35.29
22389;BME280;11362;48.102;11.620;2023-04-25T00:02:47;94600.72;;;21.29;35.38
22389;BME280;11362;48.102;11.620;2023-04-25T00:05:13;94588.50;;;21.26;35.48
22389;BME280;11362;48.102;11.620;2023-04-25T00:07:38;94582.59;;;21.28;35.42
22389;BME280;11362;48.102;11.620;2023-04-25T00:10:04;94582.59;;;21.28;35.48
22389;BME280;11362;48.102;11.620;2023-04-25T00:12:29;94593.63;;;21.28;35.39
22389;BME280;11362;48.102;11.620;2023-04-25T00:14:55;94590.88;;;21.28;35.41
22389;BME280;11362;48.102;11.620;2023-04-25T00:17:20;94581.38;;;21.29;35.39
22389;BME280;11362;48.102;11.620;2023-04-25T00:19:45;94590.47;;;21.29;35.46
22389;BME280;11362;48.102;11.620;2023-04-25T00:22:10;94598.75;;;21.29;35.32
22389;BME280;11362;48.102;11.620;2023-04-25T00:24:36;94603.47;;;21.29;35.46
22389;BME280;11362;48.102;11.620;2023-04-25T00:27:01;94595.19;;;21.29;35.38
22389;BME280;11362;48.102;11.620;2023-04-25T00:29:26;94601.50;;;21.29;35.23
22389;BME280;11362;48.102;11.620;2023-04-25T00:31:52;94600.72;;;21.29;35.42
22389;BME280;11362;48.102;11.620;2023-04-25T00:34:17;94593.63;;;21.28;35.38
22389;BME280;11362;48.102;11.620;2023-04-25T00:36:42;94595.19;;;21.29;35.49
22389;BME280;11362;48.102;11.620;2023-04-25T00:39:07;94607.78;;;21.30;35.31
22389;BME280;11362;48.102;11.620;2023-04-25T00:41:33;94589.25;;;21.30;35.24
22389;BME280;11362;48.102;11.620;2023-04-25T00:43:58;94588.47;;;21.30;35.28
22389;BME280;11362;48.102;11.620;2023-04-25T00:46:24;94588.88;;;21.28;35.38
22389;BME280;11362;48.102;11.620;2023-04-25T00:48:49;94586.56;;;21.27;35.36
22389;BME280;11362;48.102;11.620;2023-04-25T00:51:19;94590.88;;;21.28;35.40
22389;BME280;11362;48.102;11.620;2023-04-25T00:53:45;94588.09;;;21.28;35.25
22389;BME280;11362;48.102;11.620;2023-04-25T00:56:11;94593.63;;;21.28;35.54
22389;BME280;11362;48.102;11.620;2023-04-25T00:58:37;94586.91;;;21.29;35.65
22389;BME280;11362;48.102;11.620;2023-04-25T01:01:03;94587.31;;;21.27;35.27
22389;BME280;11362;48.102;11.620;2023-04-25T01:03:31;94573.09;;;21.29;35.35
22389;BME280;11362;48.102;11.620;2023-04-25T01:05:57;94581.03;;;21.27;35.39
22389;BME280;11362;48.102;11.620;2023-04-25T01:08:23;94580.22;;;21.26;35.56
22389;BME280;11362;48.102;11.620;2023-04-25T01:10:49;94588.09;;;21.28;35.28
22389;BME280;11362;48.102;11.620;2023-04-25T01:13:14;94587.31;;;21.27;35.39
22389;BME280;11362;48.102;11.620;2023-04-25T01:15:40;94581.03;;;21.27;35.46
22389;BME280;11362;48.102;11.620;2023-04-25T01:18:05;94577.06;;;21.28;35.46
22389;BME280;11362;48.102;11.620;2023-04-25T01:20:32;94579.03;;;21.27;35.30
22389;BME280;11362;48.102;11.620;2023-04-25T01:22:58;94576.25;;;21.27;35.19
22389;BME280;11362;48.102;11.620;2023-04-25T01:25:24;94571.94;;;21.26;35.35
22389;BME280;11362;48.102;11.620;2023-04-25T01:27:49;94573.16;;;21.25;35.37
22389;BME280;11362;48.102;11.620;2023-04-25T01:30:15;94569.97;;;21.27;35.31
22389;BME280;11362;48.102;11.620;2023-04-25T01:32:41;94568.41;;;21.26;35.26
22389;BME280;11362;48.102;11.620;2023-04-25T01:35:09;94568.78;;;21.28;35.11
22389;BME280;11362;48.102;11.620;2023-04-25T01:37:37;94564.47;;;21.27;35.19
22389;BME280;11362;48.102;11.620;2023-04-25T01:40:02;94568.41;;;21.26;35.14
22389;BME280;11362;48.102;11.620;2023-04-25T01:42:28;94565.66;;;21.26;35.37
22389;BME280;11362;48.102;11.620;2023-04-25T01:44:53;94562.09;;;21.25;35.23
22389;BME280;11362;48.102;11.620;2023-04-25T01:47:18;94565.66;;;21.26;35.30
22389;BME280;11362;48.102;11.620;2023-04-25T01:49:44;94565.66;;;21.26;35.23
22389;BME280;11362;48.102;11.620;2023-04-25T01:52:09;94572.34;;;21.25;35.27
22389;BME280;11362;48.102;11.620;2023-04-25T01:54:34;94560.53;;;21.24;35.40
22389;BME280;11362;48.102;11.620;2023-04-25T01:56:59;94560.53;;;21.24;35.33
22389;BME280;11362;48.102;11.620;2023-04-25T01:59:25;94569.59;;;21.25;35.30
22389;BME280;11362;48.102;11.620;2023-04-25T02:01:50;94567.63;;;21.25;35.26
22389;BME280;11362;48.102;11.620;2023-04-25T02:04:15;94560.53;;;21.24;35.39
22389;BME280;11362;48.102;11.620;2023-04-25T02:06:41;94564.06;;;21.25;35.11
22389;BME280;11362;48.102;11.620;2023-04-25T02:09:06;94557.78;;;21.24;35.27
22389;BME280;11362;48.102;11.620;2023-04-25T02:11:31;94558.53;;;21.25;35.20
22389;BME280;11362;48.102;11.620;2023-04-25T02:13:56;94557.00;;;21.24;35.21
22389;BME280;11362;48.102;11.620;2023-04-25T02:16:22;94553.47;;;21.23;35.29
22389;BME280;11362;48.102;11.620;2023-04-25T02:18:47;94560.53;;;21.24;35.51
22389;BME280;11362;48.102;11.620;2023-04-25T02:21:12;94558.19;;;21.23;35.29
22389;BME280;11362;48.102;11.620;2023-04-25T02:23:38;94562.94;;;21.22;35.43
22389;BME280;11362;48.102;11.620;2023-04-25T02:26:03;94570.38;;;21.25;35.38
22389;BME280;11362;48.102;11.620;2023-04-25T02:28:28;94568.84;;;21.24;35.35
22389;BME280;11362;48.102;11.620;2023-04-25T02:30:54;94558.97;;;21.23;35.33
22389;BME280;11362;48.102;11.620;2023-04-25T02:33:19;94557.00;;;21.24;35.42
22389;BME280;11362;48.102;11.620;2023-04-25T02:35:45;94554.66;;;21.22;35.27
22389;BME280;11362;48.102;11.620;2023-04-25T02:38:10;94553.47;;;21.23;35.26
22389;BME280;11362;48.102;11.620;2023-04-25T02:40:35;94558.19;;;21.23;35.21
22389;BME280;11362;48.102;11.620;2023-04-25T02:43:01;94549.16;;;21.22;35.23
22389;BME280;11362;48.102;11.620;2023-04-25T02:45:26;94549.91;;;21.23;35.27
22389;BME280;11362;48.102;11.620;2023-04-25T02:47:51;94552.66;;;21.23;35.17
22389;BME280;11362;48.102;11.620;2023-04-25T02:50:17;94549.91;;;21.23;35.21
22389;BME280;11362;48.102;11.620;2023-04-25T02:52:42;94547.94;;;21.23;35.32
22389;BME280;11362;48.102;11.620;2023-04-25T02:55:08;94554.22;;;21.24;35.20
22389;BME280;11362;48.102;11.620;2023-04-25T02:57:33;94544.38;;;21.23;35.55
22389;BME280;11362;48.102;11.620;2023-04-25T02:59:58;94545.59;;;21.22;35.28
22389;BME280;11362;48.102;11.620;2023-04-25T03:02:24;94550.69;;;21.23;35.02
22389;BME280;11362;48.102;11.620;2023-04-25T03:04:49;94545.19;;;21.23;34.98
22389;BME280;11362;48.102;11.620;2023-04-25T03:07:14;94548.69;;;21.24;35.21
22389;BME280;11362;48.102;11.620;2023-04-25T03:09:39;94551.47;;;21.24;35.07
22389;BME280;11362;48.102;11.620;2023-04-25T03:12:05;94559.75;;;21.24;35.20
22389;BME280;11362;48.102;11.620;2023-04-25T03:14:30;94564.50;;;21.23;35.06
22389;BME280;11362;48.102;11.620;2023-04-25T03:16:55;94559.75;;;21.24;35.11
22389;BME280;11362;48.102;11.620;2023-04-25T03:19:21;94555.03;;;21.24;35.11
22389;BME280;11362;48.102;11.620;2023-04-25T03:21:46;94552.66;;;21.23;35.16
22389;BME280;11362;48.102;11.620;2023-04-25T03:24:11;94551.47;;;21.24;35.18
22389;BME280;11362;48.102;11.620;2023-04-25T03:26:37;94542.03;;;21.21;35.33
22389;BME280;11362;48.102;11.620;2023-04-25T03:29:02;94542.81;;;21.22;35.19
22389;BME280;11362;48.102;11.620;2023-04-25T03:31:28;94542.03;;;21.21;35.16
22389;BME280;11362;48.102;11.620;2023-04-25T03:33:53;94545.59;;;21.22;35.39
22389;BME280;11362;48.102;11.620;2023-04-25T03:36:18;94546.00;;;21.20;35.39
22389;BME280;11362;48.102;11.620;2023-04-25T03:38:43;94544.03;;;21.21;35.14
22389;BME280;11362;48.102;11.620;2023-04-25T03:41:09;94534.19;;;21.20;35.15
22389;BME280;11362;48.102;11.620;2023-04-25T03:43:34;94533.75;;;21.21;35.26
22389;BME280;11362;48.102;11.620;2023-04-25T03:46:00;94538.50;;;21.21;35.20
22389;BME280;11362;48.102;11.620;2023-04-25T03:48:26;94545.59;;;21.22;35.27
22389;BME280;11362;48.102;11.620;2023-04-25T03:50:52;94540.47;;;21.20;35.17
22389;BME280;11362;48.102;11.620;2023-04-25T03:53:17;94546.00;;;21.20;35.16
22389;BME280;11362;48.102;11.620;2023-04-25T03:55:43;94544.78;;;21.21;34.99
22389;BME280;11362;48.102;11.620;2023-04-25T03:58:08;94544.03;;;21.21;35.25
22389;BME280;11362;48.102;11.620;2023-04-25T04:00:33;94539.28;;;21.21;35.32
22389;BME280;11362;48.102;11.620;2023-04-25T04:02:59;94549.16;;;21.22;35.10
22389;BME280;11362;48.102;11.620;2023-04-25T04:05:24;94546.78;;;21.21;35.12
22389;BME280;11362;48.102;11.620;2023-04-25T04:07:49;94542.03;;;21.21;35.18
22389;BME280;11362;48.102;11.620;2023-04-25T04:10:15;94537.31;;;21.22;34.98
22389;BME280;11362;48.102;11.620;2023-04-25T04:12:40;94540.84;;;21.22;35.14
22389;BME280;11362;48.102;11.620;2023-04-25T04:15:06;94537.31;;;21.22;35.06
22389;BME280;11362;48.102;11.620;2023-04-25T04:17:32;94536.09;;;21.23;35.02
22389;BME280;11362;48.102;11.620;2023-04-25T04:19:57;94535.75;;;21.21;35.07
22389;BME280;11362;48.102;11.620;2023-04-25T04:22:23;94534.94;;;21.20;35.03
22389;BME280;11362;48.102;11.620;2023-04-25T04:24:49;94532.63;;;21.19;34.94
22389;BME280;11362;48.102;11.620;2023-04-25T04:27:14;94531.44;;;21.20;34.98
22389;BME280;11362;48.102;11.620;2023-04-25T04:29:39;94528.66;;;21.20;35.27
22389;BME280;11362;48.102;11.620;2023-04-25T04:32:05;94524.34;;;21.19;35.40
22389;BME280;11362;48.102;11.620;2023-04-25T04:34:30;94528.66;;;21.20;34.99
22389;BME280;11362;48.102;11.620;2023-04-25T04:36:55;94527.09;;;21.19;35.23
22389;BME280;11362;48.102;11.620;2023-04-25T04:39:21;94534.19;;;21.20;35.23
22389;BME280;11362;48.102;11.620;2023-04-25T04:41:46;94543.25;;;21.20;35.09
22389;BME280;11362;48.102;11.620;2023-04-25T04:44:11;94542.47;;;21.20;35.26
22389;BME280;11362;48.102;11.620;2023-04-25T04:46:37;94544.03;;;21.21;35.19
22389;BME280;11362;48.102;11.620;2023-04-25T04:49:02;94551.97;;;21.19;35.17
22389;BME280;11362;48.102;11.620;2023-04-25T04:51:27;94558.25;;;21.19;35.23
22389;BME280;11362;48.102;11.620;2023-04-25T04:53:52;94557.84;;;21.21;35.18
22389;BME280;11362;48.102;11.620;2023-04-25T04:56:18;94551.97;;;21.19;35.10
22389;BME280;11362;48.102;11.620;2023-04-25T04:58:43;94543.25;;;21.20;35.16
22389;BME280;11362;48.102;11.620;2023-04-25T05:01:08;94539.72;;;21.20;35.01
22389;BME280;11362;48.102;11.620;2023-04-25T05:03:33;94537.72;;;21.20;35.33
22389;BME280;11362;48.102;11.620;2023-04-25T05:05:59;94534.19;;;21.20;35.17
22389;BME280;11362;48.102;11.620;2023-04-25T05:08:24;94536.56;;;21.18;35.15
22389;BME280;11362;48.102;11.620;2023-04-25T05:10:49;94534.19;;;21.20;35.19
22389;BME280;11362;48.102;11.620;2023-04-25T05:13:14;94537.72;;;21.20;35.02
22389;BME280;11362;48.102;11.620;2023-04-25T05:15:40;94537.72;;;21.20;35.19
22389;BME280;11362;48.102;11.620;2023-04-25T05:18:05;94541.69;;;21.19;35.20
22389;BME280;11362;48.102;11.620;2023-04-25T05:20:30;94538.50;;;21.21;35.12
22389;BME280;11362;48.102;11.620;2023-04-25T05:22:56;94536.94;;;21.20;35.14
22389;BME280;11362;48.102;11.620;2023-04-25T05:25:21;94533.38;;;21.19;35.14
22389;BME280;11362;48.102;11.620;2023-04-25T05:27:46;94532.97;;;21.21;35.36
22389;BME280;11362;48.102;11.620;2023-04-25T05:30:12;94528.66;;;21.20;35.34
22389;BME280;11362;48.102;11.620;2023-04-25T05:32:37;94532.97;;;21.21;35.17
22389;BME280;11362;48.102;11.620;2023-04-25T05:35:02;94525.91;;;21.20;35.14
22389;BME280;11362;48.102;11.620;2023-04-25T05:37:28;94521.94;;;21.21;35.12
22389;BME280;11362;48.102;11.620;2023-04-25T05:39:53;94528.22;;;21.21;35.03
22389;BME280;11362;48.102;11.620;2023-04-25T05:42:18;94531.44;;;21.20;35.25
22389;BME280;11362;48.102;11.620;2023-04-25T05:44:44;94514.41;;;21.21;35.19
22389;BME280;11362;48.102;11.620;2023-04-25T05:47:09;94518.75;;;21.22;34.85
22389;BME280;11362;48.102;11.620;2023-04-25T05:49:35;94522.28;;;21.23;34.93
22389;BME280;11362;48.102;11.620;2023-04-25T05:52:00;94519.53;;;21.23;35.04
22389;BME280;11362;48.102;11.620;2023-04-25T05:54:25;94523.50;;;21.22;35.12
22389;BME280;11362;48.102;11.620;2023-04-25T05:56:50;94527.81;;;21.23;34.95
22389;BME280;11362;48.102;11.620;2023-04-25T05:59:16;94527.81;;;21.23;34.95
22389;BME280;11362;48.102;11.620;2023-04-25T06:01:41;94547.16;;;21.23;35.09
22389;BME280;11362;48.102;11.620;2023-04-25T06:04:07;94536.88;;;21.23;35.23
22389;BME280;11362;48.102;11.620;2023-04-25T06:06:32;94541.63;;;21.23;35.05
22389;BME280;11362;48.102;11.620;2023-04-25T06:08:57;94532.97;;;21.21;34.88
22389;BME280;11362;48.102;11.620;2023-04-25T06:11:22;94540.06;;;21.22;35.00
22389;BME280;11362;48.102;11.620;2023-04-25T06:13:48;94550.31;;;21.21;35.38
22389;BME280;11362;48.102;11.620;2023-04-25T06:16:13;94565.72;;;21.22;34.95
22389;BME280;11362;48.102;11.620;2023-04-25T06:18:38;94553.88;;;21.22;35.23
22389;BME280;11362;48.102;11.620;2023-04-25T06:21:03;94556.28;;;21.20;35.17
22389;BME280;11362;48.102;11.620;2023-04-25T06:23:29;94553.06;;;21.21;35.12
22389;BME280;11362;48.102;11.620;2023-04-25T06:25:54;94542.81;;;21.22;35.27
22389;BME280;11362;48.102;11.620;2023-04-25T06:28:19;94542.81;;;21.22;35.24
22389;BME280;11362;48.102;11.620;2023-04-25T06:30:45;94540.47;;;21.20;35.11
22389;BME280;11362;48.102;11.620;2023-04-25T06:33:10;94534.19;;;21.20;35.08
22389;BME280;11362;48.102;11.620;2023-04-25T06:35:35;94532.97;;;21.21;35.17
22389;BME280;11362;48.102;11.620;2023-04-25T06:38:01;94533.75;;;21.21;35.07
22389;BME280;11362;48.102;11.620;2023-04-25T06:40:26;94538.50;;;21.21;34.94
22389;BME280;11362;48.102;11.620;2023-04-25T06:42:51;94538.84;;;21.23;35.02
22389;BME280;11362;48.102;11.620;2023-04-25T06:45:16;94541.63;;;21.23;35.04
22389;BME280;11362;48.102;11.620;2023-04-25T06:47:42;94540.06;;;21.22;35.15
22389;BME280;11362;48.102;11.620;2023-04-25T06:50:07;94538.09;;;21.22;35.05
22389;BME280;11362;48.102;11.620;2023-04-25T06:52:33;94537.31;;;21.22;35.13
22389;BME280;11362;48.102;11.620;2023-04-25T06:54:58;94529.81;;;21.22;35.27
22389;BME280;11362;48.102;11.620;2023-04-25T06:57:23;94534.13;;;21.23;35.04
22389;BME280;11362;48.102;11.620;2023-04-25T06:59:48;94538.84;;;21.23;34.99
22389;BME280;11362;48.102;11.620;2023-04-25T07:02:14;94548.69;;;21.24;35.25
22389;BME280;11362;48.102;11.620;2023-04-25T07:04:39;94542.41;;;21.23;35.17
22389;BME280;11362;48.102;11.620;2023-04-25T07:07:04;94541.63;;;21.23;35.30
22389;BME280;11362;48.102;11.620;2023-04-25T07:09:30;94543.63;;;21.22;35.01
22389;BME280;11362;48.102;11.620;2023-04-25T07:11:55;94545.59;;;21.22;35.23
22389;BME280;11362;48.102;11.620;2023-04-25T07:14:20;94545.19;;;21.23;35.21
22389;BME280;11362;48.102;11.620;2023-04-25T07:16:46;94536.09;;;21.23;34.96
22389;BME280;11362;48.102;11.620;2023-04-25T07:19:11;94540.06;;;21.22;35.25
22389;BME280;11362;48.102;11.620;2023-04-25T07:21:36;94542.41;;;21.23;35.05
22389;BME280;11362;48.102;11.620;2023-04-25T07:24:02;94536.88;;;21.23;35.27
22389;BME280;11362;48.102;11.620;2023-04-25T07:26:27;94533.34;;;21.23;34.93
22389;BME280;11362;48.102;11.620;2023-04-25T07:28:52;94536.88;;;21.23;35.30
22389;BME280;11362;48.102;11.620;2023-04-25T07:31:17;94533.69;;;21.25;35.16
22389;BME280;11362;48.102;11.620;2023-04-25T07:33:44;94537.66;;;21.24;35.16
22389;BME280;11362;48.102;11.620;2023-04-25T07:36:09;94527.41;;;21.24;35.29
22389;BME280;11362;48.102;11.620;2023-04-25T07:38:34;94533.69;;;21.25;35.35
22389;BME280;11362;48.102;11.620;2023-04-25T07:40:59;94523.84;;;21.24;35.23
22389;BME280;11362;48.102;11.620;2023-04-25T07:43:25;94531.38;;;21.23;35.17
22389;BME280;11362;48.102;11.620;2023-04-25T07:45:50;94525.06;;;21.23;35.23
22389;BME280;11362;48.102;11.620;2023-04-25T07:48:18;94525.06;;;21.23;35.14
22389;BME280;11362;48.102;11.620;2023-04-25T07:50:44;94532.13;;;21.24;35.10
22389;BME280;11362;48.102;11.620;2023-04-25T07:53:09;94524.63;;;21.24;35.06
22389;BME280;11362;48.102;11.620;2023-04-25T07:55:34;94530.16;;;21.24;35.60
22389;BME280;11362;48.102;11.620;2023-04-25T07:58:00;94525.41;;;21.25;35.27
22389;BME280;11362;48.102;11.620;2023-04-25T08:00:25;94528.16;;;21.25;35.12
22389;BME280;11362;48.102;11.620;2023-04-25T08:02:50;94524.63;;;21.24;35.40
22389;BME280;11362;48.102;11.620;2023-04-25T08:05:16;94517.13;;;21.25;35.10
22389;BME280;11362;48.102;11.620;2023-04-25T08:07:41;94524.22;;;21.26;35.37
22389;BME280;11362;48.102;11.620;2023-04-25T08:10:07;94521.47;;;21.26;35.15
22389;BME280;11362;48.102;11.620;2023-04-25T08:12:33;94521.47;;;21.26;35.31
22389;BME280;11362;48.102;11.620;2023-04-25T08:14:58;94518.69;;;21.26;35.37
22389;BME280;11362;48.102;11.620;2023-04-25T08:17:24;94519.88;;;21.25;35.17
22389;BME280;11362;48.102;11.620;2023-04-25T08:19:49;94514.78;;;21.23;35.32
22389;BME280;11362;48.102;11.620;2023-04-25T08:22:14;94512.75;;;21.27;35.08
22389;BME280;11362;48.102;11.620;2023-04-25T08:24:40;94513.19;;;21.26;35.30
22389;BME280;11362;48.102;11.620;2023-04-25T08:27:06;94520.25;;;21.27;35.26
22389;BME280;11362;48.102;11.620;2023-04-25T08:29:31;94514.75;;;21.27;35.21
22389;BME280;11362;48.102;11.620;2023-04-25T08:31:56;94518.69;;;21.26;35.34
22389;BME280;11362;48.102;11.620;2023-04-25T08:34:22;94510.41;;;21.26;35.38
22389;BME280;11362;48.102;11.620;2023-04-25T08:36:47;94519.88;;;21.25;35.46
22389;BME280;11362;48.102;11.620;2023-04-25T08:39:12;94522.66;;;21.25;35.28
22389;BME280;11362;48.102;11.620;2023-04-25T08:41:38;94530.16;;;21.24;35.22
22389;BME280;11362;48.102;11.620;2023-04-25T08:44:04;94525.41;;;21.25;35.37
22389;BME280;11362;48.102;11.620;2023-04-25T08:46:30;94527.00;;;21.26;35.29
22389;BME280;11362;48.102;11.620;2023-04-25T08:49:00;94521.88;;;21.24;35.17
22389;BME280;11362;48.102;11.620;2023-04-25T08:51:26;94524.22;;;21.26;35.30
22389;BME280;11362;48.102;11.620;2023-04-25T08:53:52;94525.78;;;21.27;35.17
22389;BME280;11362;48.102;11.620;2023-04-25T08:56:18;94517.50;;;21.27;35.16
22389;BME280;11362;48.102;11.620;2023-04-25T08:58:44;94521.03;;;21.27;35.28
22389;BME280;11362;48.102;11.620;2023-04-25T09:01:09;94525.78;;;21.27;35.03
22389;BME280;11362;48.102;11.620;2023-04-25T09:03:35;94527.00;;;21.26;35.14
22389;BME280;11362;48.102;11.620;2023-04-25T09:06:01;94519.47;;;21.26;34.93
22389;BME280;11362;48.102;11.620;2023-04-25T09:08:26;94521.81;;;21.28;35.04
22389;BME280;11362;48.102;11.620;2023-04-25T09:10:51;94522.66;;;21.25;35.33
22389;BME280;11362;48.102;11.620;2023-04-25T09:13:25;94525.00;;;21.26;35.37
22389;BME280;11362;48.102;11.620;2023-04-25T09:15:52;94521.03;;;21.27;35.11
22389;BME280;11362;48.102;11.620;2023-04-25T09:18:36;94519.06;;;21.28;35.21
22389;BME280;11362;48.102;11.620;2023-04-25T09:21:09;94524.22;;;21.26;35.22
22389;BME280;11362;48.102;11.620;2023-04-25T09:23:48;94525.78;;;21.27;35.18
22389;BME280;11362;48.102;11.620;2023-04-25T09:26:15;94525.78;;;21.27;35.13
22389;BME280;11362;48.102;11.620;2023-04-25T09:28:40;94534.06;;;21.27;35.18
22389;BME280;11362;48.102;11.620;2023-04-25T09:31:06;94532.88;;;21.28;35.24
22389;BME280;11362;48.102;11.620;2023-04-25T09:33:32;94533.63;;;21.28;35.13
22389;BME280;11362;48.102;11.620;2023-04-25T09:36:16;94534.44;;;21.29;35.10
22389;BME280;11362;48.102;11.620;2023-04-25T09:38:43;94533.63;;;21.28;34.96
22389;BME280;11362;48.102;11.620;2023-04-25T09:41:09;94527.34;;;21.28;35.14
22389;BME280;11362;48.102;11.620;2023-04-25T09:43:35;94531.31;;;21.27;35.09
22389;BME280;11362;48.102;11.620;2023-04-25T09:46:01;94536.03;;;21.26;35.06
22389;BME280;11362;48.102;11.620;2023-04-25T09:48:27;94536.03;;;21.26;35.13
22389;BME280;11362;48.102;11.620;2023-04-25T09:53:30;94534.06;;;21.27;35.22
22389;BME280;11362;48.102;11.620;2023-04-25T09:55:56;94531.31;;;21.27;35.09
22389;BME280;11362;48.102;11.620;2023-04-25T09:58:24;94541.56;;;21.26;35.12
22389;BME280;11362;48.102;11.620;2023-04-25T10:00:50;94537.25;;;21.25;35.17
22389;BME280;11362;48.102;11.620;2023-04-25T10:03:17;94532.94;;;21.24;34.89
22389;BME280;11362;48.102;11.620;2023-04-25T10:05:45;94536.03;;;21.26;35.05
22389;BME280;11362;48.102;11.620;2023-04-25T10:08:12;94544.75;;;21.25;35.12
22389;BME280;11362;48.102;11.620;2023-04-25T10:10:39;94536.44;;;21.25;34.92
22389;BME280;11362;48.102;11.620;2023-04-25T10:13:05;94535.28;;;21.26;35.05
22389;BME280;11362;48.102;11.620;2023-04-25T10:15:34;94530.16;;;21.24;34.91
22389;BME280;11362;48.102;11.620;2023-04-25T10:18:00;94527.41;;;21.24;35.04
22389;BME280;11362;48.102;11.620;2023-04-25T10:20:25;94529.38;;;21.24;34.77
22389;BME280;11362;48.102;11.620;2023-04-25T10:22:53;94530.16;;;21.24;34.99
22389;BME280;11362;48.102;11.620;2023-04-25T10:25:19;94528.16;;;21.25;35.00
22389;BME280;11362;48.102;11.620;2023-04-25T10:27:45;94521.47;;;21.26;34.89
22389;BME280;11362;48.102;11.620;2023-04-25T10:30:14;94519.06;;;21.28;34.82
22389;BME280;11362;48.102;11.620;2023-04-25T10:32:41;94520.63;;;21.29;34.98
22389;BME280;11362;48.102;11.620;2023-04-25T10:35:15;94519.06;;;21.28;34.98
22389;BME280;11362;48.102;11.620;2023-04-25T10:37:59;94514.75;;;21.27;35.03
22389;BME280;11362;48.102;11.620;2023-04-25T10:40:25;94514.34;;;21.25;34.88
22389;BME280;11362;48.102;11.620;2023-04-25T10:42:54;94519.88;;;21.25;34.86
22389;BME280;11362;48.102;11.620;2023-04-25T10:45:20;94536.09;;;21.23;35.14
22389;BME280;11362;48.102;11.620;2023-04-25T10:47:46;94555.03;;;21.24;35.06
22389;BME280;11362;48.102;11.620;2023-04-25T10:50:14;94562.91;;;21.26;35.03
22389;BME280;11362;48.102;11.620;2023-04-25T10:52:40;94565.28;;;21.24;34.77
22389;BME280;11362;48.102;11.620;2023-04-25T10:55:06;94559.75;;;21.24;35.08
22389;BME280;11362;48.102;11.620;2023-04-25T10:57:42;94559.75;;;21.24;35.07
22389;BME280;11362;48.102;11.620;2023-04-25T11:00:19;94568.41;;;21.26;34.91
22389;BME280;11362;48.102;11.620;2023-04-25T11:05:20;94575.50;;;21.27;35.00
22389;BME280;11362;48.102;11.620;2023-04-25T11:07:50;94580.22;;;21.26;34.90
22389;BME280;11362;48.102;11.620;2023-04-25T11:10:16;94579.03;;;21.27;34.92
22389;BME280;11362;48.102;11.620;2023-04-25T11:12:41;94584.13;;;21.29;34.87
22389;BME280;11362;48.102;11.620;2023-04-25T11:15:07;94592.06;;;21.27;34.95
22389;BME280;11362;48.102;11.620;2023-04-25T11:17:33;94590.88;;;21.28;35.00
22389;BME280;11362;48.102;11.620;2023-04-25T11:19:59;94606.25;;;21.29;35.01
22389;BME280;11362;48.102;11.620;2023-04-25T11:22:26;94601.91;;;21.28;34.86
22389;BME280;11362;48.102;11.620;2023-04-25T11:24:52;94610.22;;;21.28;34.96
22389;BME280;11362;48.102;11.620;2023-04-25T11:27:17;94605.88;;;21.27;35.18
22389;BME280;11362;48.102;11.620;2023-04-25T11:29:43;94612.97;;;21.28;34.98
22389;BME280;11362;48.102;11.620;2023-04-25T11:32:08;94623.66;;;21.26;35.01
22389;BME280;11362;48.102;11.620;2023-04-25T11:34:34;94630.75;;;21.27;34.73
22389;BME280;11362;48.102;11.620;2023-04-25T11:37:00;94631.50;;;21.27;35.05
22389;BME280;11362;48.102;11.620;2023-04-25T11:39:27;94636.25;;;21.27;34.83
22389;BME280;11362;48.102;11.620;2023-04-25T11:41:53;94637.03;;;21.27;34.84
22389;BME280;11362;48.102;11.620;2023-04-25T11:44:19;94633.84;;;21.29;34.93
22389;BME280;11362;48.102;11.620;2023-04-25T11:46:45;94644.91;;;21.29;34.89
22389;BME280;11362;48.102;11.620;2023-04-25T11:49:11;94649.22;;;21.30;34.96
22389;BME280;11362;48.102;11.620;2023-04-25T11:51:45;94650.44;;;21.29;34.85
22389;BME280;11362;48.102;11.620;2023-04-25T11:54:12;94652.03;;;21.26;34.92
22389;BME280;11362;48.102;11.620;2023-04-25T11:56:41;94653.59;;;21.27;35.04
22389;BME280;11362;48.102;11.620;2023-04-25T11:59:06;94659.13;;;21.27;34.88
22389;BME280;11362;48.102;11.620;2023-04-25T12:01:37;94667.41;;;21.27;35.00
22389;BME280;11362;48.102;11.620;2023-04-25T12:04:12;94663.88;;;21.27;34.87
22389;BME280;11362;48.102;11.620;2023-04-25T12:06:38;94660.69;;;21.28;35.04
22389;BME280;11362;48.102;11.620;2023-04-25T12:09:06;94665.44;;;21.28;34.91
22389;BME280;11362;48.102;11.620;2023-04-25T12:11:32;94670.19;;;21.27;35.04
22389;BME280;11362;48.102;11.620;2023-04-25T12:14:02;94665.84;;;21.26;35.11
22389;BME280;11362;48.102;11.620;2023-04-25T12:16:27;94664.66;;;21.27;35.03
22389;BME280;11362;48.102;11.620;2023-04-25T12:18:53;94661.47;;;21.29;35.18
22389;BME280;11362;48.102;11.620;2023-04-25T12:21:20;94668.63;;;21.26;35.07
22389;BME280;11362;48.102;11.620;2023-04-25T12:23:45;94663.50;;;21.25;34.98
22389;BME280;11362;48.102;11.620;2023-04-25T12:26:11;94663.88;;;21.27;35.05
22389;BME280;11362;48.102;11.620;2023-04-25T12:28:36;94671.38;;;21.26;35.23
22389;BME280;11362;48.102;11.620;2023-04-25T12:31:07;94669.41;;;21.27;35.04
22389;BME280;11362;48.102;11.620;2023-04-25T12:33:34;94669.41;;;21.27;34.89
22389;BME280;11362;48.102;11.620;2023-04-25T12:36:02;94677.25;;;21.28;34.96
22389;BME280;11362;48.102;11.620;2023-04-25T12:38:30;94675.69;;;21.27;35.05
22389;BME280;11362;48.102;11.620;2023-04-25T12:40:57;94681.22;;;21.27;34.95
22389;BME280;11362;48.102;11.620;2023-04-25T12:43:23;94673.38;;;21.26;35.17
22389;BME280;11362;48.102;11.620;2023-04-25T12:45:55;94675.69;;;21.27;35.04
22389;BME280;11362;48.102;11.620;2023-04-25T12:48:20;94673.72;;;21.28;35.09